Polinya, Spain
Current Conditions -  °F | °C
As of 5:00 PM on Sunday 21 Dec 2014 (Local Time) from LELL Reporting Station
Clear Clear  
Wind Chill: 55°   Ceiling: Unl
Heat Index: 55°   Visibility: 6mi
Dew Point: 43°   Wind: 3mph
Humidity: 63%   Direction: 250°WSW
Pressure: 30.42"   Gusts: NA
Location:  41.55°N, 2.15°E
Report Text: LELL 211600Z 25003KT CAVOK 13/06 Q1030
Loading
Personal Weather Stations






























Interactive Weather Map New forecast layout! Learn more

10-Day Weather Forecast

Advertisements
Track Severe Weather on mobile